createdAt,value
2022-12-17T00:01:54.312Z,101478.34
2022-12-17T00:04:39.903Z,101478.47
2022-12-17T00:07:25.381Z,101488.69
2022-12-17T00:10:10.862Z,101487.72
2022-12-17T00:12:56.581Z,101499.69
2022-12-17T00:15:43.199Z,101503.09
2022-12-17T00:18:30.942Z,101500.50
2022-12-17T00:21:19.153Z,101507.34
2022-12-17T00:24:06.024Z,101504.59
2022-12-17T00:26:52.523Z,101508.09
2022-12-17T00:29:38.310Z,101503.88
2022-12-17T00:32:24.170Z,101514.16
2022-12-17T00:35:10.644Z,101509.00
2022-12-17T00:37:59.441Z,101513.28
2022-12-17T00:40:44.914Z,101508.16
2022-12-17T00:43:31.888Z,101513.19
2022-12-17T00:46:17.954Z,101514.78
2022-12-17T00:49:03.984Z,101513.94
2022-12-17T00:51:49.957Z,101522.53
2022-12-17T00:54:35.260Z,101530.09
2022-12-17T00:57:20.677Z,101524.25
2022-12-17T01:00:06.173Z,101526.72
2022-12-17T01:02:51.855Z,101525.84
2022-12-17T01:05:37.679Z,101532.69
2022-12-17T01:08:33.644Z,101534.41
2022-12-17T01:11:26.131Z,101536.22
2022-12-17T01:14:12.682Z,101537.09
2022-12-17T01:16:58.338Z,101548.19
2022-12-17T01:19:43.938Z,101554.06
2022-12-17T01:22:29.445Z,101545.66
2022-12-17T01:25:14.852Z,101557.69
2022-12-17T01:28:00.353Z,101557.59
2022-12-17T01:30:45.901Z,101558.56
2022-12-17T01:33:33.032Z,101565.31
2022-12-17T01:36:19.193Z,101564.44
2022-12-17T01:39:04.793Z,101563.66
2022-12-17T01:41:50.643Z,101565.28
2022-12-17T01:44:57.785Z,101557.75
2022-12-17T01:47:56.456Z,101559.28
2022-12-17T01:50:47.464Z,101568.91
2022-12-17T01:53:37.576Z,101568.88
2022-12-17T01:56:24.680Z,101570.56
2022-12-17T01:59:10.992Z,101567.16
2022-12-17T02:01:57.819Z,101562.81
2022-12-17T02:04:44.224Z,101566.34
2022-12-17T02:07:48.194Z,101568.88
2022-12-17T02:11:12.496Z,101574.81
2022-12-17T02:14:05.398Z,101570.50
2022-12-17T02:17:12.698Z,101580.72
2022-12-17T02:20:42.874Z,101579.06
2022-12-17T02:24:03.943Z,101575.53
2022-12-17T02:27:02.336Z,101573.19
2022-12-17T02:30:00.291Z,101575.69
2022-12-17T02:32:46.783Z,101573.16
2022-12-17T02:35:40.966Z,101577.41
2022-12-17T02:38:42.583Z,101578.34
2022-12-17T02:41:47.732Z,101581.78
2022-12-17T02:44:37.808Z,101592.81
2022-12-17T02:47:27.997Z,101606.63
2022-12-17T02:50:13.689Z,101591.88
2022-12-17T02:53:06.612Z,101598.81
2022-12-17T02:55:55.080Z,101596.25
2022-12-17T02:58:40.546Z,101599.56
2022-12-17T03:01:26.265Z,101595.38
2022-12-17T03:04:11.993Z,101603.94
2022-12-17T03:06:57.457Z,101603.88
2022-12-17T03:09:42.789Z,101610.75
2022-12-17T03:12:28.379Z,101611.56
2022-12-17T03:15:13.892Z,101610.81
2022-12-17T03:17:59.304Z,101612.53
2022-12-17T03:20:45.063Z,101617.50
2022-12-17T03:23:31.243Z,101617.63
2022-12-17T03:26:21.713Z,101620.16
2022-12-17T03:29:07.534Z,101616.81
2022-12-17T03:31:52.821Z,101619.38
2022-12-17T03:34:38.233Z,101620.22
2022-12-17T03:37:24.285Z,101620.31
2022-12-17T03:40:09.646Z,101624.38
2022-12-17T03:42:55.552Z,101620.28
2022-12-17T03:45:41.401Z,101632.16
2022-12-17T03:48:33.912Z,101633.84
2022-12-17T03:51:20.172Z,101634.72
2022-12-17T03:54:06.591Z,101633.97
2022-12-17T03:56:52.315Z,101639.09
2022-12-17T03:59:37.784Z,101637.34
2022-12-17T04:02:24.084Z,101642.38
2022-12-17T04:05:13.800Z,101650.09
2022-12-17T04:08:01.977Z,101649.19
2022-12-17T04:10:47.612Z,101649.19
2022-12-17T04:13:38.793Z,101657.78
2022-12-17T04:16:26.175Z,101662.97
2022-12-17T04:19:11.560Z,101666.47
2022-12-17T04:21:56.974Z,101664.75
2022-12-17T04:24:42.534Z,101674.19
2022-12-17T04:27:28.044Z,101677.63
2022-12-17T04:30:13.612Z,101681.84
2022-12-17T04:32:59.016Z,101681.97
2022-12-17T04:35:44.487Z,101675.16
2022-12-17T04:38:29.857Z,101680.13
2022-12-17T04:41:15.271Z,101681.84
2022-12-17T04:44:03.243Z,101690.53
2022-12-17T04:46:49.456Z,101696.56
2022-12-17T04:49:35.286Z,101685.28
2022-12-17T04:52:20.772Z,101698.06
2022-12-17T04:55:06.769Z,101687.03
2022-12-17T04:57:52.987Z,101690.53
2022-12-17T05:00:38.905Z,101690.53
2022-12-17T05:03:35.553Z,101696.50
2022-12-17T05:06:21.657Z,101700.75
2022-12-17T05:09:07.279Z,101697.22
2022-12-17T05:11:53.166Z,101704.09
2022-12-17T05:14:38.947Z,101700.78
2022-12-17T05:17:25.159Z,101694.66
2022-12-17T05:20:10.695Z,101708.41
2022-12-17T05:22:56.568Z,101704.25
2022-12-17T05:25:42.602Z,101714.47
2022-12-17T05:28:28.331Z,101725.50
2022-12-17T05:31:14.991Z,101717.78
2022-12-17T05:34:01.652Z,101721.97
2022-12-17T05:36:47.194Z,101723.81
2022-12-17T05:39:32.942Z,101734.84
2022-12-17T05:42:18.449Z,101744.22
2022-12-17T05:45:03.770Z,101739.03
2022-12-17T05:47:49.194Z,101744.94
2022-12-17T05:50:35.151Z,101740.66
2022-12-17T05:53:24.534Z,101742.53
2022-12-17T05:56:12.226Z,101750.13
2022-12-17T05:58:58.607Z,101754.47
2022-12-17T06:01:44.070Z,101757.81
2022-12-17T06:04:30.006Z,101755.19
2022-12-17T06:07:15.571Z,101765.56
2022-12-17T06:10:01.386Z,101766.56
2022-12-17T06:12:47.049Z,101765.69
2022-12-17T06:15:32.469Z,101763.91
2022-12-17T06:18:18.688Z,101774.03
2022-12-17T06:21:05.357Z,101775.78
2022-12-17T06:23:51.105Z,101771.53
2022-12-17T06:26:38.140Z,101779.31
2022-12-17T06:29:23.340Z,101784.38
2022-12-17T06:32:08.862Z,101782.59
2022-12-17T06:34:54.337Z,101788.59
2022-12-17T06:37:39.894Z,101801.41
2022-12-17T06:40:26.349Z,101803.06
2022-12-17T06:43:15.889Z,101799.69
2022-12-17T06:46:01.560Z,101816.03
2022-12-17T06:48:47.434Z,101821.16
2022-12-17T06:51:33.015Z,101825.41
2022-12-17T06:54:18.791Z,101825.38
2022-12-17T06:57:05.216Z,101827.91
2022-12-17T06:59:50.852Z,101823.59
2022-12-17T07:02:36.494Z,101842.41
2022-12-17T07:05:28.452Z,101843.34
2022-12-17T07:08:19.475Z,101856.13
2022-12-17T07:11:05.277Z,101862.09
2022-12-17T07:13:51.458Z,101860.41
2022-12-17T07:16:51.541Z,101862.09
2022-12-17T07:19:37.304Z,101865.50
2022-12-17T07:22:22.922Z,101860.34
2022-12-17T07:25:08.689Z,101867.16
2022-12-17T07:27:54.509Z,101867.97
2022-12-17T07:30:39.957Z,101873.06
2022-12-17T07:33:28.427Z,101875.72
2022-12-17T07:36:15.225Z,101881.69
2022-12-17T07:39:01.251Z,101880.00
2022-12-17T07:41:46.915Z,101879.09
2022-12-17T07:44:32.684Z,101876.50
2022-12-17T07:47:18.148Z,101895.25
2022-12-17T07:50:03.605Z,101895.28
2022-12-17T07:52:49.715Z,101902.13
2022-12-17T07:55:35.528Z,101907.19
2022-12-17T07:58:27.712Z,101908.88
2022-12-17T08:01:13.975Z,101919.16
2022-12-17T08:04:02.148Z,101918.28
2022-12-17T08:06:48.078Z,101923.38
2022-12-17T08:09:47.496Z,101929.31
2022-12-17T08:12:32.855Z,101936.97
2022-12-17T08:15:18.697Z,101935.28
2022-12-17T08:18:04.409Z,101941.31
2022-12-17T08:20:50.437Z,101949.91
2022-12-17T08:23:36.603Z,101950.78
2022-12-17T08:26:22.659Z,101942.25
2022-12-17T08:29:08.092Z,101938.81
2022-12-17T08:31:53.508Z,101948.19
2022-12-17T08:34:38.878Z,101942.25
2022-12-17T08:37:24.623Z,101946.47
2022-12-17T08:40:09.917Z,101939.63
2022-12-17T08:42:55.800Z,101948.13
2022-12-17T08:45:49.575Z,101950.66
2022-12-17T08:48:35.524Z,101952.38
2022-12-17T08:51:20.929Z,101966.97
2022-12-17T08:54:06.409Z,101960.16
2022-12-17T08:56:52.095Z,101958.44
2022-12-17T08:59:38.107Z,101960.13
2022-12-17T09:02:23.864Z,101955.00
2022-12-17T09:05:09.754Z,101960.91
2022-12-17T09:07:55.911Z,101969.50
2022-12-17T09:10:41.613Z,101978.00
2022-12-17T09:13:27.081Z,101983.19
2022-12-17T09:16:14.899Z,101984.06
2022-12-17T09:19:01.793Z,101985.75
2022-12-17T09:21:50.069Z,102002.81
2022-12-17T09:24:35.789Z,102009.66
2022-12-17T09:27:21.316Z,102002.84
2022-12-17T09:30:06.688Z,102007.94
2022-12-17T09:32:52.376Z,101999.38
2022-12-17T09:35:48.815Z,101995.97
2022-12-17T09:38:37.869Z,101999.34
2022-12-17T09:42:18.877Z,101995.03
2022-12-17T09:45:55.455Z,101996.84
2022-12-17T09:49:16.808Z,102001.97
2022-12-17T09:52:02.671Z,102001.09
2022-12-17T09:55:07.098Z,102008.81
2022-12-17T09:57:56.341Z,102014.78
2022-12-17T10:00:47.497Z,102011.34
2022-12-17T10:03:42.603Z,102013.06
2022-12-17T10:06:36.131Z,102016.47
2022-12-17T10:09:35.260Z,102014.78
2022-12-17T10:12:39.024Z,102013.91
2022-12-17T10:15:26.706Z,102019.03
2022-12-17T10:18:12.561Z,102019.03
2022-12-17T10:21:42.953Z,102023.25
2022-12-17T10:24:30.765Z,102024.94
2022-12-17T10:27:17.077Z,102028.38
2022-12-17T10:30:03.490Z,102026.69
2022-12-17T10:32:49.691Z,102034.34
2022-12-17T10:35:44.289Z,102032.69
2022-12-17T10:38:48.035Z,102038.63
2022-12-17T10:41:53.771Z,102035.16
2022-12-17T10:44:56.436Z,102032.63
2022-12-17T10:47:46.551Z,102036.09
2022-12-17T10:50:42.130Z,102041.19
2022-12-17T10:53:43.712Z,102038.66
2022-12-17T10:56:45.490Z,102047.19
2022-12-17T10:59:43.889Z,102052.22
2022-12-17T11:02:44.697Z,102046.19
2022-12-17T11:05:59.757Z,102045.47
2022-12-17T11:08:45.882Z,102042.84
2022-12-17T11:11:33.746Z,102049.69
2022-12-17T11:14:22.963Z,102046.19
2022-12-17T11:17:23.430Z,102056.44
2022-12-17T11:20:20.490Z,102054.56
2022-12-17T11:23:19.112Z,102055.44
2022-12-17T11:26:21.571Z,102060.63
2022-12-17T11:29:08.032Z,102067.47
2022-12-17T11:32:28.924Z,102074.25
2022-12-17T11:35:48.961Z,102075.88
2022-12-17T11:38:51.859Z,102074.44
2022-12-17T11:42:12.102Z,102070.22
2022-12-17T11:45:45.480Z,102064.25
2022-12-17T11:48:58.997Z,102076.19
2022-12-17T11:52:12.600Z,102072.78
2022-12-17T11:55:30.441Z,102084.69
2022-12-17T11:58:50.194Z,102084.69
2022-12-17T12:02:28.474Z,102089.69
2022-12-17T12:06:03.791Z,102093.16
2022-12-17T12:09:19.557Z,102091.53
2022-12-17T12:12:52.934Z,102090.63
2022-12-17T12:16:33.376Z,102079.53
2022-12-17T12:19:43.387Z,102088.88
2022-12-17T12:22:49.609Z,102089.81
2022-12-17T12:26:23.867Z,102084.59
2022-12-17T12:29:39.487Z,102093.09
2022-12-17T12:32:49.699Z,102101.72
2022-12-17T12:35:42.884Z,102110.25
2022-12-17T12:38:50.882Z,102119.69
2022-12-17T12:42:16.804Z,102123.09
2022-12-17T12:45:34.069Z,102113.75
2022-12-17T12:49:03.553Z,102128.28
2022-12-17T12:51:54.629Z,102129.16
2022-12-17T12:54:50.530Z,102129.16
2022-12-17T12:57:59.552Z,102132.53
2022-12-17T13:00:58.558Z,102141.91
2022-12-17T13:03:55.868Z,102130.84
2022-12-17T13:06:56.893Z,102139.41
2022-12-17T13:09:49.049Z,102139.38
2022-12-17T13:12:54.824Z,102138.53
2022-12-17T13:15:41.135Z,102141.09
2022-12-17T13:18:36.214Z,102142.81
2022-12-17T13:21:26.674Z,102145.34
2022-12-17T13:23:53.906Z,102143.69
2022-12-17T13:26:39.277Z,102147.09
2022-12-17T13:29:24.790Z,102146.22
2022-12-17T13:32:23.412Z,102146.22
2022-12-17T13:35:34.179Z,102142.81
2022-12-17T13:38:38.564Z,102167.59
2022-12-17T13:41:18.257Z,102165.03
2022-12-17T13:43:54.485Z,102168.44
2022-12-17T13:46:29.973Z,102173.56
2022-12-17T13:49:04.495Z,102169.31
2022-12-17T13:51:35.385Z,102164.19
2022-12-17T13:54:04.659Z,102164.16
2022-12-17T13:56:37.691Z,102175.28
2022-12-17T13:59:09.580Z,102179.53
2022-12-17T14:01:49.043Z,102184.66
2022-12-17T14:04:29.924Z,102189.75
2022-12-17T14:07:05.855Z,102190.63
2022-12-17T14:09:43.046Z,102188.06
2022-12-17T14:12:24.651Z,102199.16
2022-12-17T14:15:08.554Z,102200.88
2022-12-17T14:17:44.031Z,102199.16
2022-12-17T14:20:22.005Z,102198.31
2022-12-17T14:23:32.253Z,102204.28
2022-12-17T14:25:59.812Z,102200.00
2022-12-17T14:28:50.281Z,102207.72
2022-12-17T14:31:29.885Z,102200.03
2022-12-17T14:34:11.696Z,102205.13
2022-12-17T14:36:44.849Z,102207.66
2022-12-17T14:39:26.666Z,102202.53
2022-12-17T14:42:25.435Z,102205.88
2022-12-17T14:44:57.163Z,102208.50
2022-12-17T14:47:33.323Z,102218.78
2022-12-17T14:50:12.323Z,102221.34
2022-12-17T14:52:55.449Z,102223.06
2022-12-17T14:55:55.703Z,102223.88
2022-12-17T14:58:26.172Z,102225.59
2022-12-17T15:01:11.261Z,102231.50
2022-12-17T15:03:48.053Z,102234.09
2022-12-17T15:06:20.402Z,102226.44
2022-12-17T15:08:51.258Z,102231.56
2022-12-17T15:11:24.145Z,102231.44
2022-12-17T15:13:56.298Z,102234.84
2022-12-17T15:16:24.173Z,102239.13
2022-12-17T15:18:51.209Z,102243.25
2022-12-17T15:21:21.915Z,102247.66
2022-12-17T15:23:49.801Z,102241.75
2022-12-17T15:26:17.373Z,102244.28
2022-12-17T15:28:45.118Z,102239.97
2022-12-17T15:31:14.936Z,102254.53
2022-12-17T15:33:42.896Z,102263.88
2022-12-17T15:36:14.001Z,102262.19
2022-12-17T15:38:41.270Z,102263.97
2022-12-17T15:41:27.200Z,102271.63
2022-12-17T15:43:54.190Z,102275.84
2022-12-17T15:46:21.421Z,102272.47
2022-12-17T15:48:50.594Z,102269.13
2022-12-17T15:51:24.082Z,102265.66
2022-12-17T15:58:19.061Z,102272.31
2022-12-17T16:00:46.108Z,102280.97
2022-12-17T16:03:13.186Z,102280.97
2022-12-17T16:05:40.231Z,102288.63
2022-12-17T16:08:07.756Z,102288.59
2022-12-17T16:10:34.822Z,102300.59
2022-12-17T16:13:01.850Z,102300.50
2022-12-17T16:15:29.121Z,102292.94
2022-12-17T16:19:07.520Z,102293.75
2022-12-17T16:21:34.565Z,102299.63
2022-12-17T16:24:01.549Z,102289.47
2022-12-17T16:26:28.592Z,102292.78
2022-12-17T16:28:58.718Z,102284.31
2022-12-17T16:31:26.711Z,102290.25
2022-12-17T16:33:53.846Z,102290.28
2022-12-17T16:36:22.020Z,102297.13
2022-12-17T16:38:54.699Z,102295.38
2022-12-17T16:41:23.203Z,102287.63
2022-12-17T16:43:50.282Z,102296.25
2022-12-17T16:46:34.897Z,102296.22
2022-12-17T16:49:23.919Z,102303.06
2022-12-17T16:51:57.822Z,102311.59
2022-12-17T16:54:30.919Z,102317.63
2022-12-17T16:56:58.164Z,102320.25
2022-12-17T16:59:25.295Z,102314.25
2022-12-17T17:01:52.813Z,102312.53
2022-12-17T17:04:23.057Z,102314.28
2022-12-17T17:06:55.716Z,102317.66
2022-12-17T17:09:25.335Z,102315.09
2022-12-17T17:11:57.102Z,102309.19
2022-12-17T17:14:25.067Z,102313.47
2022-12-17T17:16:52.987Z,102318.56
2022-12-17T17:19:20.526Z,102318.44
2022-12-17T17:21:54.704Z,102321.91
2022-12-17T17:24:26.538Z,102321.09
2022-12-17T17:26:55.125Z,102325.38
2022-12-17T17:29:22.480Z,102323.72
2022-12-17T17:34:36.593Z,102328.81
2022-12-17T17:37:04.127Z,102336.56
2022-12-17T17:39:33.057Z,102335.66
2022-12-17T17:42:00.670Z,102348.47
2022-12-17T17:44:27.867Z,102339.06
2022-12-17T17:46:54.861Z,102340.00
2022-12-17T17:49:22.259Z,102341.69
2022-12-17T17:52:09.091Z,102345.97
2022-12-17T17:54:36.678Z,102351.09
2022-12-17T17:57:03.747Z,102348.56
2022-12-17T17:59:33.804Z,102348.56
2022-12-17T18:02:02.735Z,102352.84
2022-12-17T18:04:30.755Z,102355.38
2022-12-17T18:09:44.770Z,102359.47
2022-12-17T18:12:30.576Z,102365.50
2022-12-17T18:15:15.307Z,102365.44
2022-12-17T18:17:45.838Z,102369.78
2022-12-17T18:20:13.822Z,102372.38
2022-12-17T18:22:40.922Z,102368.97
2022-12-17T18:25:08.450Z,102366.38
2022-12-17T18:27:35.416Z,102368.09
2022-12-17T18:30:02.510Z,102378.34
2022-12-17T18:32:29.522Z,102377.38
2022-12-17T18:34:56.514Z,102373.91
2022-12-17T18:37:23.546Z,102379.91
2022-12-17T18:39:50.568Z,102376.53
2022-12-17T18:42:36.064Z,102381.59
2022-12-17T18:45:04.017Z,102383.38
2022-12-17T18:47:31.266Z,102376.53
2022-12-17T18:49:58.353Z,102382.34
2022-12-17T18:52:25.670Z,102385.84
2022-12-17T18:54:52.762Z,102394.44
2022-12-17T18:57:19.766Z,102396.88
2022-12-17T18:59:46.860Z,102395.97
2022-12-17T19:02:15.759Z,102388.25
2022-12-17T19:04:43.369Z,102391.81
2022-12-17T19:07:11.261Z,102406.38
2022-12-17T19:09:40.153Z,102405.50
2022-12-17T19:12:09.604Z,102414.00
2022-12-17T19:14:37.146Z,102421.75
2022-12-17T19:17:05.833Z,102420.84
2022-12-17T19:19:33.636Z,102422.56
2022-12-17T19:22:00.879Z,102420.94
2022-12-17T19:24:28.223Z,102423.47
2022-12-17T19:26:55.806Z,102422.56
2022-12-17T19:29:22.936Z,102425.09
2022-12-17T19:31:50.623Z,102427.75
2022-12-17T19:34:19.143Z,102425.91
2022-12-17T19:36:47.329Z,102431.13
2022-12-17T19:39:18.924Z,102438.44
2022-12-17T19:41:46.558Z,102438.56
2022-12-17T19:44:16.793Z,102441.88
2022-12-17T19:46:44.469Z,102442.84
2022-12-17T19:49:16.575Z,102444.38
2022-12-17T19:51:44.865Z,102447.91
2022-12-17T19:54:15.401Z,102447.06
2022-12-17T19:56:45.147Z,102448.88
2022-12-17T19:59:13.917Z,102453.16
2022-12-17T20:01:46.403Z,102448.78
2022-12-17T20:04:17.519Z,102454.81
2022-12-17T20:06:46.015Z,102454.78
2022-12-17T20:09:14.644Z,102462.50
2022-12-17T20:11:42.004Z,102464.22
2022-12-17T20:14:18.582Z,102467.63
2022-12-17T20:16:50.699Z,102473.63
2022-12-17T20:19:33.312Z,102485.44
2022-12-17T20:22:04.541Z,102488.13
2022-12-17T20:24:32.392Z,102481.22
2022-12-17T20:27:00.310Z,102482.88
2022-12-17T20:29:27.621Z,102492.16
2022-12-17T20:31:55.689Z,102488.72
2022-12-17T20:34:23.983Z,102488.81
2022-12-17T20:36:53.028Z,102492.19
2022-12-17T20:39:27.697Z,102498.94
2022-12-17T20:41:56.635Z,102498.19
2022-12-17T20:44:23.729Z,102498.91
2022-12-17T20:46:53.791Z,102487.94
2022-12-17T20:49:20.964Z,102498.97
2022-12-17T20:51:49.014Z,102492.97
2022-12-17T20:54:16.361Z,102501.53
2022-12-17T20:56:44.341Z,102500.69
2022-12-17T20:59:18.781Z,102505.72
2022-12-17T21:01:52.775Z,102508.31
2022-12-17T21:04:23.881Z,102500.66
2022-12-17T21:06:51.257Z,102503.22
2022-12-17T21:09:22.425Z,102505.72
2022-12-17T21:11:49.772Z,102507.38
2022-12-17T21:14:19.656Z,102506.50
2022-12-17T21:16:47.492Z,102507.19
2022-12-17T21:19:19.083Z,102499.59
2022-12-17T21:21:47.075Z,102507.13
2022-12-17T21:24:14.491Z,102506.91
2022-12-17T21:26:44.824Z,102513.88
2022-12-17T21:29:12.921Z,102509.38
2022-12-17T21:31:43.829Z,102520.34
2022-12-17T21:34:22.395Z,102525.97
2022-12-17T21:36:50.865Z,102525.72
2022-12-17T21:39:19.258Z,102534.31
2022-12-17T21:42:06.791Z,102527.72
2022-12-17T21:44:35.130Z,102534.56
2022-12-17T21:47:02.449Z,102529.59
2022-12-17T21:49:30.791Z,102526.31
2022-12-17T21:51:59.497Z,102524.81
2022-12-17T21:54:27.462Z,102527.31
2022-12-17T21:56:55.265Z,102535.16
2022-12-17T21:59:25.542Z,102530.78
2022-12-17T22:01:54.176Z,102537.69
2022-12-17T22:04:21.665Z,102539.88
2022-12-17T22:06:52.978Z,102543.84
2022-12-17T22:09:28.922Z,102541.38
2022-12-17T22:12:31.283Z,102548.75
2022-12-17T22:14:58.786Z,102547.47
2022-12-17T22:17:26.780Z,102545.84
2022-12-17T22:19:54.942Z,102549.22
2022-12-17T22:22:22.022Z,102545.72
2022-12-17T22:24:49.073Z,102552.59
2022-12-17T22:27:16.527Z,102568.47
2022-12-17T22:30:02.377Z,102569.97
2022-12-17T22:32:48.216Z,102564.72
2022-12-17T22:36:04.962Z,102567.50
2022-12-17T22:40:55.024Z,102567.75
2022-12-17T22:44:32.173Z,102577.38
2022-12-17T22:44:44.078Z,102583.22
2022-12-17T22:46:27.987Z,102584.00
2022-12-17T22:48:57.366Z,102587.38
2022-12-17T22:51:36.786Z,102587.91
2022-12-17T22:54:10.133Z,102595.75
2022-12-17T22:56:48.495Z,102605.03
2022-12-17T22:59:27.684Z,102597.47
2022-12-17T23:01:54.956Z,102593.22
2022-12-17T23:04:22.327Z,102598.38
2022-12-17T23:06:50.174Z,102606.84
2022-12-17T23:09:19.723Z,102604.13
2022-12-17T23:11:49.220Z,102597.50
2022-12-17T23:14:18.209Z,102595.00
2022-12-17T23:16:45.989Z,102602.53
2022-12-17T23:19:13.829Z,102599.84
2022-12-17T23:21:41.509Z,102598.81
2022-12-17T23:24:09.488Z,102605.84
2022-12-17T23:26:38.292Z,102606.09
2022-12-17T23:29:17.660Z,102608.53
2022-12-17T23:31:47.004Z,102604.31
2022-12-17T23:34:14.585Z,102602.75
2022-12-17T23:36:41.565Z,102611.28
2022-12-17T23:39:08.932Z,102612.91
2022-12-17T23:41:36.068Z,102613.75
2022-12-17T23:44:03.177Z,102615.53
2022-12-17T23:46:31.539Z,102614.53
2022-12-17T23:48:58.729Z,102609.47
2022-12-17T23:51:26.596Z,102614.72
2022-12-17T23:53:56.384Z,102619.59
2022-12-17T23:56:27.077Z,102617.84
2022-12-17T23:59:01.849Z,102620.28
